Amunt
Inicio > meteoXarxa
Fes-te'n soci

METEOXARXA

Cinctorres
Ubicació
Comarca els Ports
Altitud (msnm) 907
Posició geogràfica 40° 34' 57.00" N, 00° 12' 58.00" W
Model Davis Vantage Pro2
Presa de dades
Font de les dades Llorens Boix Milián
Estadístiques. Resum
Data Temperatura (ºC) Humitat (%) Pressió (hPa) Vent (km/h) Precipit. (mm)
Mínima Mitjana Màxima Mínima Mitjana Màxima Mínima Mitjana Màxima Predom. Mitjana Ràfega màxima Total Dies de pluja
Mínima Mitjana Màxima Mínima Mitjana Màxima
Últimes dades diàries
24-02-2017 3,1     6,9     9,1 60,0 77,2 92,0 1.009,7 1.012,8 1.018,3 O 11,9 45,1 4,1  
23-02-2017 9,1     11,8     16,2 50,0 60,1 78,0 1.011,3 1.014,0 1.018,2 SSO 3,7 25,7 0,0  
21-02-2017 -0,3     6,1     14,7 38,0 74,3 95,0 1.022,3 1.024,6 1.026,5 SSE 2,3 19,3 0,0  
20-02-2017 1,2     5,7     12,6 43,0 77,0 92,0 1.024,0 1.026,0 1.027,9 SSO 2,2 17,7 0,0  
19-02-2017 2,2     5,5     10,1 63,0 81,6 93,0 1.020,8 1.024,4 1.026,6 SSE 3,0 22,5 0,0  
18-02-2017 0,8     5,9     12,8 35,0 75,8 94,0 1.018,2 1.021,1 1.024,5 S 2,6 22,5 0,3  
17-02-2017 0,6     6,1     12,5 53,0 79,8 96,0 1.024,5 1.027,0 1.029,9 S 2,6 22,5 0,3  
16-02-2017 4,7     7,6     11,3 57,0 81,4 92,0 1.028,8 1.030,8 1.032,7 SSE 4,0 24,1 0,0  
15-02-2017 1,7     6,4     12,4 55,0 80,9 95,0 1.028,6 1.030,9 1.032,9 SE 3,6 19,3 0,0  
14-02-2017 2,0     6,8     12,3 52,0 75,8 90,0 1.015,2 1.021,9 1.028,3 SSE 5,0 27,4 0,0  
13-02-2017 6,4     7,8     10,3 78,0 86,6 94,0 1.005,4 1.008,7 1.014,8 S 8,6 37,0 9,1  
12-02-2017 6,3     7,4     9,3 71,0 83,6 89,0 1.006,6 1.008,1 1.009,5 SE 13,6 45,1 0,0  
11-02-2017 2,2     4,9     6,6 83,0 87,6 92,0 1.009,8 1.013,0 1.015,3 SE 6,7 30,6 1,5  
10-02-2017 1,3     3,9     7,7 53,0 71,5 86,0 1.012,7 1.014,1 1.015,4 SE 7,9 32,2 0,0  
09-02-2017 0,5     3,9     9,6 35,0 60,1 77,0 1.015,0 1.018,7 1.021,8 SO 11,8 61,2 0,0  
08-02-2017 1,2     2,6     5,1 59,0 72,2 89,0 1.015,8 1.019,8 1.022,6 NO 28,5 75,6 0,8  
07-02-2017 3,1     9,0     12,2 62,0 75,3 90,0 1.016,4 1.018,0 1.020,1 ONO 15,2 64,4 7,1  
05-02-2017 4,3     9,6     12,6 53,0 63,1 81,0 1.004,4 1.006,1 1.008,2 OSO 12,3 66,0 1,0  
04-02-2017 10,6     12,4     15,1 50,0 57,4 62,0 1.007,8 1.010,2 1.012,5 O 16,3 61,2 0,0  
03-02-2017 2,9     8,7     13,6 45,0 62,2 82,0 1.011,7 1.014,1 1.016,5 OSO 12,5 85,3 0,0  
02-02-2017 3,2     6,1     11,3 65,0 81,2 93,0 1.009,2 1.013,1 1.016,1 SSO 3,4 37,0 3,3  
01-02-2017 2,6     8,5     16,1 36,0 65,1 84,0 1.014,5 1.016,0 1.017,3 SSO 3,8 27,4 0,0  
31-01-2017 3,6     7,8     15,3 55,0 81,5 93,0 1.014,7 1.016,5 1.018,1 S 1,8 17,7 0,0  
30-01-2017 5,4     8,4     11,8 68,0 79,1 88,0 1.018,3 1.020,4 1.023,0 SO 3,5 30,6 0,0  
29-01-2017 -0,2     5,2     10,3 53,0 71,6 87,0 1.022,2 1.023,7 1.025,5 SO 2,2 24,1 0,0  
28-01-2017 2,6     4,1     6,9 56,0 76,3 93,0 1.010,2 1.017,9 1.024,3 ONO 18,5 51,5 2,8  
27-01-2017 2,1     4,4     7,7 73,0 87,4 93,0 1.008,0 1.010,8 1.015,9 S 9,1 35,4 6,3  
26-01-2017 -3,6     1,1     6,3 60,0 81,3 92,0 1.015,4 1.016,8 1.018,4 SSE 3,9 35,4 0,3  
25-01-2017 -2,7     2,9     7,1 24,0 44,0 86,0 1.016,7 1.018,8 1.021,7 OSO 9,0 37,0 0,0  
24-01-2017 0,8     2,8     6,3 45,0 63,7 78,0 1.020,3 1.021,6 1.023,4 O 7,0 33,8 0,0  
23-01-2017 0,3     2,3     4,4 73,0 81,7 94,0 1.017,5 1.019,1 1.020,8 ONO 10,8 30,6 0,0  
22-01-2017 0,5     1,7     3,5 77,0 88,2 94,0 1.015,9 1.017,1 1.019,2 ONO 12,5 33,8 1,3  
Dades del mes en curs (actualitzades fins l'últim dia disponible)
02/2017 -0,3 3,2 10,6 7,0 5,1 11,5 16,2 35,0 74,1 96,0 1.004,4 1.017,9 1.032,9   8,3 85,3 27,5  
Últimes dades mensuals
01/2017 -6,9 0,1 6,5 3,6 -1,9 7,9 17,2 43,9 69,5 95,7 1.010,8 1.020,9 1.030,1 10,8 83,7 66,2 9
12/2016 -0,9 2,9 7,6 6,0 3,2 10,3 15,3 37,7 82,5 95,3 1.017,9 1.028,0 1.036,3 3,8 45,1 45,4 13
11/2016 -2,2 4,0 8,8 7,7 7,4 11,4 16,9 61,5 72,8 92,0 1.002,0 1.014,6 1.026,5 71,0 45,4 8
10/2016 3,6 9,3 13,1 14,4 12,3 19,4 25,9 40,5 69,9 85,5 1.000,0 1.015,3 1.027,5 45,0 18,0 12
09/2016 8,3 13,3 22,1 18,7 16,3 24,2 34,7 33,0 62,2 80,0 1.009,5 1.017,0 1.026,5 52,0 16,8 9
08/2016 8,5 14,5 18,3 21,4 21,9 28,3 32,1 47,0 55,6 77,5 1.008,0 1.016,5 1.022,5 45,0 9,8 2
07/2016 7,8 15,6 20,3 22,0 21,3 28,4 35,2 39,5 55,1 67,5 1.010,5 1.015,6 1.021,0 63,0 27,6 6
06/2016 8,3 12,9 18,8 18,7 16,9 24,6 30,6 38,5 57,7 73,5 1.001,0 1.014,6 1.024,5 50,0 41,0 7
05/2016 4,8 8,2 12,8 13,4 11,7 18,5 24,1 42,5 65,5 90,5 1.005,0 1.012,9 1.021,0 68,0 36,6 10
04/2016 -0,1 5,1 10,1 9,8 5,9 14,5 21,3 49,0 64,6 93,0 1.005,0 1.012,7 1.019,0 64,0 37,6 9
03/2016 -2,5 2,5 6,8 6,7 4,8 10,9 21,7 48,5 67,3 91,0 1.004,0 1.015,4 1.026,5 68,0 21,8 8
02/2016 -7,2 2,1 10,4 6,8 3,8 11,5 16,8 42,5 64,8 86,5 991,0 1.017,4 1.036,0 90,0 21,6 10
01/2016 -1,0 3,8 10,9 8,0 3,8 12,2 18,2 53,0 68,4 87,0 1.002,5 1.020,5 1.032,5 74,0 6,6 4
Dades de l'any en curs (actualitzades fins l'últim dia disponible)
2017 -6,9 1,4 10,6 5,0 -1,9 9,4 17,2 24,0 71,4 97,0 1.004,4 1.019,7 1.032,9   9,8 85,3 93,7  
Últimes dades anuals